Irkutsk, Russia
Current Conditions -  °F | °C
As of 5:00 AM on Tuesday 25 Nov 2014 (Local Time) from UIII Reporting Station
Clear Clear  
Wind Chill: 24°   Ceiling: Unl
Heat Index: 30°   Visibility: 6mi
Dew Point: 19°   Wind: 7mph
Humidity: 64%   Direction: 210°SSW
Pressure: 29.29"   Gusts: NA
Location:  52.33°N, 104.24°E
Report Text: UIII 242100Z 21003MPS CAVOK M01/M07 Q0992 NOSIG RMK QFE700/093430CLRD60
Loading
Personal Weather Stations






























Interactive Weather Map New forecast layout! Learn more

10-Day Weather Forecast

Advertisements
Track Severe Weather on mobile